VXP239 KJQF-KLAL
Flight info
| Callsign | VXP239 |
|---|---|
| Flight time | 1h 16m |
| Altitude | 36000 |
| Route | BEAVY6 JENDO MAVRC TEUFL KYYUU LUBBR4 |
| Aircraft | B738/M-SDE2E3FGHIRWXY/LB1 |
Departure
| Time | 2026-05-04 23:18 |
|---|---|
| Airport | Concord-Padgett Regional Airport (KJQF) |
Arrival
| Time | 2026-05-05 00:34 |
|---|---|
| Airport | Lakeland Linder International Airport (KLAL) |
| Time | Latitude | Longitude | Altitude | Speed | Heading |
|---|---|---|---|---|---|
| 2026-05-04 22:36 | 35.38041 | -80.71322 | 634 ft | 0 kts | 325° |
| 2026-05-04 23:02 | 35.38041 | -80.71321 | 634 ft | 0 kts | 325° |
| 2026-05-04 23:02 | 35.38041 | -80.71322 | 634 ft | 0 kts | 325° |
| 2026-05-04 23:07 | 35.38041 | -80.71321 | 634 ft | 0 kts | 325° |
| 2026-05-04 23:07 | 35.38041 | -80.71322 | 634 ft | 0 kts | 325° |
| 2026-05-04 23:08 | 35.38036 | -80.71317 | 634 ft | 2 kts | 325° |
| 2026-05-04 23:08 | 35.38023 | -80.71307 | 634 ft | 2 kts | 326° |
| 2026-05-04 23:09 | 35.38011 | -80.71297 | 634 ft | 2 kts | 325° |
| 2026-05-04 23:09 | 35.37998 | -80.71287 | 633 ft | 2 kts | 342° |
| 2026-05-04 23:09 | 35.37983 | -80.71285 | 633 ft | 2 kts | 3° |
| 2026-05-04 23:09 | 35.37976 | -80.71285 | 633 ft | 1 kts | 13° |
| 2026-05-04 23:10 | 35.37973 | -80.71286 | 633 ft | 0 kts | 11° |
| 2026-05-04 23:12 | 35.37974 | -80.71286 | 633 ft | 0 kts | 11° |
| 2026-05-04 23:12 | 35.38029 | -80.71274 | 635 ft | 12 kts | 11° |
| 2026-05-04 23:12 | 35.38082 | -80.71242 | 638 ft | 6 kts | 78° |
| 2026-05-04 23:13 | 35.38113 | -80.71204 | 639 ft | 8 kts | 18° |
| 2026-05-04 23:13 | 35.38189 | -80.71186 | 643 ft | 14 kts | 10° |
| 2026-05-04 23:13 | 35.38311 | -80.71158 | 650 ft | 18 kts | 10° |
| 2026-05-04 23:13 | 35.38433 | -80.71131 | 655 ft | 18 kts | 10° |
| 2026-05-04 23:14 | 35.38570 | -80.71100 | 662 ft | 19 kts | 10° |
| 2026-05-04 23:14 | 35.38714 | -80.71067 | 667 ft | 25 kts | 10° |
| 2026-05-04 23:14 | 35.38885 | -80.71030 | 674 ft | 23 kts | 10° |
| 2026-05-04 23:14 | 35.39032 | -80.70996 | 677 ft | 20 kts | 11° |
| 2026-05-04 23:15 | 35.39176 | -80.70963 | 678 ft | 23 kts | 10° |
| 2026-05-04 23:15 | 35.39350 | -80.70923 | 680 ft | 25 kts | 10° |
| 2026-05-04 23:15 | 35.39512 | -80.70888 | 681 ft | 22 kts | 10° |
| 2026-05-04 23:15 | 35.39647 | -80.70856 | 685 ft | 17 kts | 11° |
| 2026-05-04 23:16 | 35.39736 | -80.70837 | 688 ft | 9 kts | 10° |
| 2026-05-04 23:16 | 35.39773 | -80.70823 | 689 ft | 2 kts | 43° |
| 2026-05-04 23:16 | 35.39777 | -80.70817 | 689 ft | 1 kts | 57° |
| 2026-05-04 23:16 | 35.39781 | -80.70773 | 691 ft | 5 kts | 96° |
| 2026-05-04 23:17 | 35.39774 | -80.70715 | 694 ft | 7 kts | 107° |
| 2026-05-04 23:17 | 35.39728 | -80.70699 | 693 ft | 11 kts | 189° |
| 2026-05-04 23:17 | 35.39495 | -80.70753 | 686 ft | 67 kts | 190° |
| 2026-05-04 23:17 | 35.38821 | -80.70904 | 674 ft | 129 kts | 190° |
| 2026-05-04 23:18 | 35.37774 | -80.71139 | 855 ft | 161 kts | 190° |
| 2026-05-04 23:18 | 35.36750 | -80.71326 | 1664 ft | 149 kts | 180° |
| 2026-05-04 23:18 | 35.35696 | -80.71059 | 2053 ft | 168 kts | 166° |
| 2026-05-04 23:18 | 35.34489 | -80.70752 | 2462 ft | 182 kts | 171° |
| 2026-05-04 23:19 | 35.33205 | -80.70549 | 2852 ft | 193 kts | 180° |
| 2026-05-04 23:19 | 35.31847 | -80.70929 | 3194 ft | 209 kts | 201° |
| 2026-05-04 23:19 | 35.30444 | -80.71617 | 3601 ft | 224 kts | 203° |
| 2026-05-04 23:19 | 35.28988 | -80.72389 | 4040 ft | 238 kts | 204° |
| 2026-05-04 23:20 | 35.27432 | -80.73230 | 4487 ft | 251 kts | 204° |
| 2026-05-04 23:20 | 35.25800 | -80.74101 | 4996 ft | 261 kts | 204° |
| 2026-05-04 23:20 | 35.24118 | -80.74989 | 5627 ft | 265 kts | 204° |
| 2026-05-04 23:20 | 35.22412 | -80.75887 | 6279 ft | 268 kts | 204° |
| 2026-05-04 23:21 | 35.20691 | -80.76791 | 6944 ft | 272 kts | 204° |
| 2026-05-04 23:21 | 35.18969 | -80.77697 | 7612 ft | 275 kts | 204° |
| 2026-05-04 23:21 | 35.17203 | -80.78626 | 8291 ft | 278 kts | 204° |
| 2026-05-04 23:21 | 35.15420 | -80.79563 | 8977 ft | 281 kts | 204° |
| 2026-05-04 23:22 | 35.13636 | -80.80500 | 9657 ft | 284 kts | 204° |
| 2026-05-04 23:22 | 35.11807 | -80.81461 | 10315 ft | 290 kts | 205° |
| 2026-05-04 23:22 | 35.09904 | -80.82461 | 10716 ft | 306 kts | 205° |
| 2026-05-04 23:22 | 35.07894 | -80.83519 | 11103 ft | 322 kts | 205° |
| 2026-05-04 23:23 | 35.05804 | -80.84618 | 11690 ft | 330 kts | 205° |
| 2026-05-04 23:23 | 35.03699 | -80.85719 | 12356 ft | 335 kts | 206° |
| 2026-05-04 23:23 | 35.01539 | -80.86848 | 13056 ft | 340 kts | 206° |
| 2026-05-04 23:23 | 34.99355 | -80.87993 | 13769 ft | 345 kts | 207° |
| 2026-05-04 23:24 | 34.97149 | -80.89149 | 14498 ft | 349 kts | 207° |
| 2026-05-04 23:24 | 34.94913 | -80.90318 | 15252 ft | 352 kts | 207° |
| 2026-05-04 23:24 | 34.92668 | -80.91491 | 16101 ft | 352 kts | 207° |
| 2026-05-04 23:24 | 34.90437 | -80.92653 | 17008 ft | 348 kts | 207° |
| 2026-05-04 23:25 | 34.88197 | -80.93821 | 17742 ft | 351 kts | 207° |
| 2026-05-04 23:25 | 34.85983 | -80.94978 | 18459 ft | 353 kts | 207° |
| 2026-05-04 23:25 | 34.83721 | -80.96159 | 19159 ft | 356 kts | 207° |
| 2026-05-04 23:25 | 34.81438 | -80.97351 | 19849 ft | 359 kts | 207° |
| 2026-05-04 23:26 | 34.79138 | -80.98550 | 20461 ft | 362 kts | 207° |
| 2026-05-04 23:26 | 34.76815 | -80.99761 | 21022 ft | 367 kts | 207° |
| 2026-05-04 23:26 | 34.74467 | -81.00983 | 21695 ft | 370 kts | 208° |
| 2026-05-04 23:26 | 34.72102 | -81.02211 | 22534 ft | 371 kts | 208° |
| 2026-05-04 23:27 | 34.69726 | -81.03444 | 23356 ft | 372 kts | 209° |
| 2026-05-04 23:27 | 34.67334 | -81.04685 | 23931 ft | 374 kts | 208° |
| 2026-05-04 23:27 | 34.64923 | -81.05938 | 24446 ft | 378 kts | 208° |
| 2026-05-04 23:27 | 34.62525 | -81.07183 | 24927 ft | 382 kts | 208° |
| 2026-05-04 23:28 | 34.60071 | -81.08451 | 25461 ft | 385 kts | 208° |
| 2026-05-04 23:28 | 34.57561 | -81.09641 | 25930 ft | 390 kts | 205° |
| 2026-05-04 23:28 | 34.54934 | -81.10576 | 26445 ft | 395 kts | 199° |
| 2026-05-04 23:28 | 34.52233 | -81.11285 | 26936 ft | 399 kts | 196° |
| 2026-05-04 23:29 | 34.49517 | -81.11882 | 27387 ft | 402 kts | 195° |
| 2026-05-04 23:29 | 34.46744 | -81.12447 | 27807 ft | 406 kts | 195° |
| 2026-05-04 23:29 | 34.43943 | -81.13010 | 28260 ft | 408 kts | 195° |
| 2026-05-04 23:29 | 34.41127 | -81.13580 | 28669 ft | 411 kts | 195° |
| 2026-05-04 23:30 | 34.38294 | -81.14162 | 29060 ft | 414 kts | 195° |
| 2026-05-04 23:30 | 34.35458 | -81.14785 | 29513 ft | 414 kts | 197° |
| 2026-05-04 23:30 | 34.32672 | -81.15536 | 29880 ft | 416 kts | 199° |
| 2026-05-04 23:30 | 34.29848 | -81.16390 | 30293 ft | 417 kts | 200° |
| 2026-05-04 23:31 | 34.27036 | -81.17274 | 30752 ft | 418 kts | 200° |
| 2026-05-04 23:31 | 34.24244 | -81.18155 | 31163 ft | 420 kts | 200° |
| 2026-05-04 23:31 | 34.21396 | -81.19047 | 31582 ft | 421 kts | 200° |
| 2026-05-04 23:31 | 34.18567 | -81.19924 | 31940 ft | 424 kts | 200° |
| 2026-05-04 23:32 | 34.15676 | -81.20813 | 32323 ft | 426 kts | 200° |
| 2026-05-04 23:32 | 34.12819 | -81.21684 | 32718 ft | 427 kts | 200° |
| 2026-05-04 23:32 | 34.09947 | -81.22553 | 33079 ft | 429 kts | 199° |
| 2026-05-04 23:32 | 34.07023 | -81.23436 | 33428 ft | 432 kts | 199° |
| 2026-05-04 23:33 | 34.04102 | -81.24314 | 33828 ft | 432 kts | 199° |
| 2026-05-04 23:33 | 34.01206 | -81.25184 | 34165 ft | 434 kts | 199° |
| 2026-05-04 23:33 | 33.98250 | -81.26070 | 34472 ft | 437 kts | 199° |
| 2026-05-04 23:33 | 33.95300 | -81.26954 | 34730 ft | 439 kts | 199° |
| 2026-05-04 23:34 | 33.92348 | -81.27837 | 35058 ft | 438 kts | 199° |
| 2026-05-04 23:34 | 33.89394 | -81.28718 | 35427 ft | 437 kts | 199° |
| 2026-05-04 23:34 | 33.86424 | -81.29603 | 35739 ft | 436 kts | 200° |
| 2026-05-04 23:34 | 33.83514 | -81.30496 | 35991 ft | 435 kts | 201° |
| 2026-05-04 23:35 | 33.77762 | -81.32758 | 36043 ft | 433 kts | 206° |
| 2026-05-04 23:35 | 33.72152 | -81.35270 | 36033 ft | 429 kts | 206° |
| 2026-05-04 23:36 | 33.66539 | -81.37796 | 36038 ft | 431 kts | 206° |
| 2026-05-04 23:36 | 33.60934 | -81.40278 | 36044 ft | 431 kts | 206° |
| 2026-05-04 23:37 | 33.55296 | -81.42744 | 36038 ft | 432 kts | 206° |
| 2026-05-04 23:37 | 33.49651 | -81.45193 | 36034 ft | 431 kts | 206° |
| 2026-05-04 23:38 | 33.44002 | -81.47633 | 36039 ft | 431 kts | 206° |
| 2026-05-04 23:38 | 33.38384 | -81.50056 | 36039 ft | 430 kts | 205° |
| 2026-05-04 23:39 | 33.32748 | -81.52483 | 36035 ft | 431 kts | 205° |
| 2026-05-04 23:39 | 33.27098 | -81.54913 | 36035 ft | 433 kts | 206° |
| 2026-05-04 23:40 | 33.21419 | -81.57352 | 36034 ft | 432 kts | 206° |
| 2026-05-04 23:40 | 33.15783 | -81.59768 | 36035 ft | 432 kts | 206° |
| 2026-05-04 23:41 | 33.10107 | -81.62200 | 36028 ft | 433 kts | 205° |
| 2026-05-04 23:41 | 33.04451 | -81.64618 | 36035 ft | 432 kts | 206° |
| 2026-05-04 23:42 | 32.98803 | -81.67030 | 36033 ft | 431 kts | 205° |
| 2026-05-04 23:42 | 32.93147 | -81.69442 | 36046 ft | 431 kts | 205° |
| 2026-05-04 23:43 | 32.87507 | -81.71842 | 36032 ft | 430 kts | 205° |
| 2026-05-04 23:43 | 32.81857 | -81.74247 | 36022 ft | 432 kts | 205° |
| 2026-05-04 23:44 | 32.76194 | -81.76653 | 36027 ft | 433 kts | 206° |
| 2026-05-04 23:44 | 32.70555 | -81.79047 | 36038 ft | 433 kts | 206° |
| 2026-05-04 23:45 | 32.64896 | -81.81445 | 36043 ft | 431 kts | 206° |
| 2026-05-04 23:45 | 32.59078 | -81.83476 | 36036 ft | 437 kts | 200° |
| 2026-05-04 23:46 | 32.53108 | -81.84988 | 36031 ft | 439 kts | 198° |
| 2026-05-04 23:46 | 32.47156 | -81.86421 | 36042 ft | 439 kts | 198° |
| 2026-05-04 23:47 | 32.41142 | -81.87910 | 36036 ft | 440 kts | 199° |
| 2026-05-04 23:47 | 32.35159 | -81.89423 | 36035 ft | 439 kts | 199° |
| 2026-05-04 23:48 | 32.29210 | -81.90941 | 36036 ft | 441 kts | 200° |
| 2026-05-04 23:48 | 32.23207 | -81.92478 | 36030 ft | 440 kts | 200° |
| 2026-05-04 23:49 | 32.17220 | -81.94005 | 36044 ft | 439 kts | 200° |
| 2026-05-04 23:49 | 32.11266 | -81.95527 | 36039 ft | 440 kts | 200° |
| 2026-05-04 23:50 | 32.05259 | -81.97057 | 36035 ft | 440 kts | 200° |
| 2026-05-04 23:50 | 31.99267 | -81.98586 | 36036 ft | 442 kts | 200° |
| 2026-05-04 23:51 | 31.93295 | -82.00104 | 36025 ft | 440 kts | 200° |
| 2026-05-04 23:51 | 31.87252 | -82.01642 | 36028 ft | 442 kts | 200° |
| 2026-05-04 23:52 | 31.81163 | -82.02874 | 36034 ft | 449 kts | 195° |
| 2026-05-04 23:52 | 31.74916 | -82.03735 | 36100 ft | 451 kts | 194° |
| 2026-05-04 23:53 | 31.68768 | -82.04538 | 36028 ft | 441 kts | 195° |
| 2026-05-04 23:53 | 31.62643 | -82.05393 | 36036 ft | 447 kts | 195° |
| 2026-05-04 23:54 | 31.56460 | -82.06290 | 36034 ft | 447 kts | 196° |
| 2026-05-04 23:54 | 31.50280 | -82.07196 | 36030 ft | 446 kts | 196° |
| 2026-05-04 23:55 | 31.44119 | -82.08106 | 36029 ft | 445 kts | 196° |
| 2026-05-04 23:56 | 31.34898 | -82.09462 | 36029 ft | 446 kts | 196° |
| 2026-05-04 23:56 | 31.28746 | -82.10369 | 36026 ft | 444 kts | 197° |
| 2026-05-04 23:57 | 31.22579 | -82.11279 | 36024 ft | 448 kts | 196° |
| 2026-05-04 23:57 | 31.16409 | -82.12186 | 36020 ft | 448 kts | 196° |
| 2026-05-04 23:58 | 31.10189 | -82.13097 | 36025 ft | 447 kts | 197° |
| 2026-05-04 23:58 | 31.04022 | -82.14000 | 36024 ft | 450 kts | 197° |
| 2026-05-04 23:59 | 30.97813 | -82.14912 | 36027 ft | 448 kts | 196° |
| 2026-05-04 23:59 | 30.91627 | -82.15815 | 36029 ft | 448 kts | 197° |
| 2026-05-05 00:00 | 30.85447 | -82.16717 | 36028 ft | 449 kts | 196° |
| 2026-05-05 00:00 | 30.79227 | -82.17621 | 36037 ft | 447 kts | 197° |
| 2026-05-05 00:01 | 30.73057 | -82.18520 | 36046 ft | 450 kts | 197° |
| 2026-05-05 00:01 | 30.66830 | -82.19426 | 36043 ft | 450 kts | 196° |
| 2026-05-05 00:02 | 30.60619 | -82.20299 | 36042 ft | 454 kts | 195° |
| 2026-05-05 00:02 | 30.54341 | -82.21020 | 36045 ft | 449 kts | 194° |
| 2026-05-05 00:03 | 30.48110 | -82.21692 | 36042 ft | 452 kts | 194° |
| 2026-05-05 00:03 | 30.41872 | -82.22372 | 36042 ft | 450 kts | 194° |
| 2026-05-05 00:04 | 30.35604 | -82.23068 | 36043 ft | 452 kts | 195° |
| 2026-05-05 00:04 | 30.29336 | -82.23770 | 36044 ft | 449 kts | 194° |
| 2026-05-05 00:05 | 30.23113 | -82.24468 | 36042 ft | 450 kts | 194° |
| 2026-05-05 00:05 | 30.16873 | -82.25070 | 36045 ft | 454 kts | 191° |
| 2026-05-05 00:06 | 30.10437 | -82.24802 | 36041 ft | 463 kts | 184° |
| 2026-05-05 00:06 | 30.04026 | -82.23986 | 36031 ft | 469 kts | 181° |
| 2026-05-05 00:07 | 29.97535 | -82.23064 | 36023 ft | 469 kts | 181° |
| 2026-05-05 00:07 | 29.94251 | -82.22604 | 35888 ft | 471 kts | 181° |
| 2026-05-05 00:07 | 29.91013 | -82.22161 | 35625 ft | 471 kts | 181° |
| 2026-05-05 00:07 | 29.87760 | -82.21723 | 35362 ft | 470 kts | 181° |
| 2026-05-05 00:08 | 29.84532 | -82.21295 | 35098 ft | 470 kts | 181° |
| 2026-05-05 00:08 | 29.81244 | -82.20868 | 34641 ft | 475 kts | 181° |
| 2026-05-05 00:08 | 29.77938 | -82.20442 | 33919 ft | 476 kts | 181° |
| 2026-05-05 00:08 | 29.74671 | -82.20023 | 33154 ft | 478 kts | 181° |
| 2026-05-05 00:09 | 29.71362 | -82.19598 | 32358 ft | 479 kts | 181° |
| 2026-05-05 00:09 | 29.68046 | -82.19172 | 31536 ft | 481 kts | 181° |
| 2026-05-05 00:09 | 29.64745 | -82.18746 | 31009 ft | 475 kts | 181° |
| 2026-05-05 00:09 | 29.61490 | -82.18322 | 30499 ft | 469 kts | 181° |
| 2026-05-05 00:10 | 29.58246 | -82.17899 | 29954 ft | 463 kts | 181° |
| 2026-05-05 00:10 | 29.55082 | -82.17491 | 29411 ft | 458 kts | 181° |
| 2026-05-05 00:10 | 29.51941 | -82.17091 | 28875 ft | 453 kts | 182° |
| 2026-05-05 00:10 | 29.48808 | -82.16694 | 28324 ft | 448 kts | 181° |
| 2026-05-05 00:11 | 29.45751 | -82.16308 | 27797 ft | 443 kts | 181° |
| 2026-05-05 00:11 | 29.42685 | -82.15922 | 27247 ft | 439 kts | 181° |
| 2026-05-05 00:11 | 29.39656 | -82.15540 | 26730 ft | 434 kts | 181° |
| 2026-05-05 00:11 | 29.36697 | -82.15168 | 26199 ft | 430 kts | 180° |
| 2026-05-05 00:12 | 29.33719 | -82.14796 | 25667 ft | 426 kts | 180° |
| 2026-05-05 00:12 | 29.30786 | -82.14429 | 25135 ft | 422 kts | 180° |
| 2026-05-05 00:12 | 29.27904 | -82.14069 | 24610 ft | 418 kts | 180° |
| 2026-05-05 00:12 | 29.25021 | -82.13709 | 24081 ft | 414 kts | 180° |
| 2026-05-05 00:13 | 29.22164 | -82.13352 | 23560 ft | 410 kts | 180° |
| 2026-05-05 00:13 | 29.19332 | -82.12997 | 23038 ft | 406 kts | 180° |
| 2026-05-05 00:13 | 29.16561 | -82.12672 | 22528 ft | 402 kts | 181° |
| 2026-05-05 00:13 | 29.13763 | -82.12490 | 22012 ft | 400 kts | 184° |
| 2026-05-05 00:14 | 29.10967 | -82.12426 | 21486 ft | 400 kts | 185° |
| 2026-05-05 00:14 | 29.08189 | -82.12403 | 20965 ft | 397 kts | 185° |
| 2026-05-05 00:14 | 29.05452 | -82.12384 | 20456 ft | 394 kts | 185° |
| 2026-05-05 00:14 | 29.02736 | -82.12360 | 19932 ft | 391 kts | 184° |
| 2026-05-05 00:15 | 29.00025 | -82.12329 | 19410 ft | 388 kts | 184° |
| 2026-05-05 00:15 | 28.97323 | -82.12289 | 18859 ft | 385 kts | 184° |
| 2026-05-05 00:15 | 28.94656 | -82.12243 | 18356 ft | 381 kts | 183° |
| 2026-05-05 00:15 | 28.92036 | -82.12196 | 17847 ft | 378 kts | 183° |
| 2026-05-05 00:16 | 28.89385 | -82.12146 | 17292 ft | 376 kts | 182° |
| 2026-05-05 00:16 | 28.86775 | -82.12097 | 16762 ft | 373 kts | 182° |
| 2026-05-05 00:16 | 28.84207 | -82.12046 | 16218 ft | 370 kts | 182° |
| 2026-05-05 00:16 | 28.81629 | -82.11993 | 15737 ft | 367 kts | 182° |
| 2026-05-05 00:17 | 28.79092 | -82.11939 | 15207 ft | 365 kts | 181° |
| 2026-05-05 00:17 | 28.76546 | -82.11885 | 14704 ft | 362 kts | 181° |
| 2026-05-05 00:17 | 28.74055 | -82.11832 | 14215 ft | 359 kts | 181° |
| 2026-05-05 00:17 | 28.71558 | -82.11780 | 13698 ft | 357 kts | 181° |
| 2026-05-05 00:18 | 28.69071 | -82.11727 | 13181 ft | 355 kts | 180° |
| 2026-05-05 00:18 | 28.66651 | -82.11573 | 12963 ft | 347 kts | 177° |
| 2026-05-05 00:18 | 28.64248 | -82.11282 | 12957 ft | 346 kts | 175° |
| 2026-05-05 00:18 | 28.61844 | -82.10921 | 12970 ft | 350 kts | 174° |
| 2026-05-05 00:19 | 28.59406 | -82.10538 | 12964 ft | 350 kts | 174° |
| 2026-05-05 00:19 | 28.57003 | -82.10171 | 12965 ft | 351 kts | 174° |
| 2026-05-05 00:19 | 28.54588 | -82.09811 | 12964 ft | 352 kts | 174° |
| 2026-05-05 00:19 | 28.52148 | -82.09456 | 12965 ft | 350 kts | 175° |
| 2026-05-05 00:20 | 28.49730 | -82.09107 | 12962 ft | 352 kts | 174° |
| 2026-05-05 00:20 | 28.47305 | -82.08665 | 12969 ft | 348 kts | 171° |
| 2026-05-05 00:20 | 28.44962 | -82.08113 | 12964 ft | 334 kts | 169° |
| 2026-05-05 00:20 | 28.42770 | -82.07523 | 12956 ft | 318 kts | 168° |
| 2026-05-05 00:21 | 28.40638 | -82.06934 | 12714 ft | 311 kts | 169° |
| 2026-05-05 00:21 | 28.38555 | -82.06373 | 12331 ft | 309 kts | 169° |
| 2026-05-05 00:21 | 28.36451 | -82.05822 | 11941 ft | 307 kts | 169° |
| 2026-05-05 00:21 | 28.34366 | -82.05286 | 11575 ft | 305 kts | 170° |
| 2026-05-05 00:22 | 28.32314 | -82.04761 | 11206 ft | 303 kts | 170° |
| 2026-05-05 00:22 | 28.30284 | -82.04243 | 10935 ft | 292 kts | 171° |
| 2026-05-05 00:22 | 28.28314 | -82.03741 | 10575 ft | 287 kts | 171° |
| 2026-05-05 00:22 | 28.26385 | -82.03247 | 10155 ft | 284 kts | 170° |
| 2026-05-05 00:23 | 28.24445 | -82.02782 | 9688 ft | 282 kts | 173° |
| 2026-05-05 00:23 | 28.22527 | -82.02501 | 9268 ft | 279 kts | 178° |
| 2026-05-05 00:23 | 28.20594 | -82.02311 | 8885 ft | 274 kts | 178° |
| 2026-05-05 00:23 | 28.18744 | -82.02130 | 8766 ft | 261 kts | 178° |
| 2026-05-05 00:24 | 28.16975 | -82.01932 | 8652 ft | 248 kts | 177° |
| 2026-05-05 00:24 | 28.15263 | -82.01723 | 8407 ft | 243 kts | 176° |
| 2026-05-05 00:24 | 28.13596 | -82.01605 | 8084 ft | 240 kts | 189° |
| 2026-05-05 00:24 | 28.12099 | -82.02338 | 7696 ft | 232 kts | 227° |
| 2026-05-05 00:25 | 28.11347 | -82.03880 | 7336 ft | 228 kts | 258° |
| 2026-05-05 00:25 | 28.11088 | -82.05637 | 6974 ft | 228 kts | 263° |
| 2026-05-05 00:25 | 28.10888 | -82.07423 | 6631 ft | 228 kts | 264° |
| 2026-05-05 00:25 | 28.10687 | -82.09212 | 6309 ft | 228 kts | 263° |
| 2026-05-05 00:26 | 28.10487 | -82.10973 | 6039 ft | 228 kts | 263° |
| 2026-05-05 00:26 | 28.10282 | -82.12764 | 5740 ft | 229 kts | 263° |
| 2026-05-05 00:26 | 28.10082 | -82.14535 | 5467 ft | 229 kts | 263° |
| 2026-05-05 00:26 | 28.09885 | -82.16338 | 5149 ft | 231 kts | 263° |
| 2026-05-05 00:27 | 28.09695 | -82.18137 | 4832 ft | 233 kts | 263° |
| 2026-05-05 00:27 | 28.09507 | -82.19979 | 4525 ft | 235 kts | 263° |
| 2026-05-05 00:27 | 28.09045 | -82.21712 | 4241 ft | 233 kts | 234° |
| 2026-05-05 00:27 | 28.07791 | -82.22804 | 3956 ft | 227 kts | 193° |
| 2026-05-05 00:28 | 28.06253 | -82.22937 | 3719 ft | 221 kts | 174° |
| 2026-05-05 00:28 | 28.04707 | -82.22816 | 3477 ft | 220 kts | 173° |
| 2026-05-05 00:28 | 28.03194 | -82.22702 | 3264 ft | 218 kts | 174° |
| 2026-05-05 00:28 | 28.01719 | -82.22612 | 3173 ft | 208 kts | 174° |
| 2026-05-05 00:29 | 28.00290 | -82.22536 | 3071 ft | 200 kts | 174° |
| 2026-05-05 00:29 | 27.98917 | -82.22478 | 2884 ft | 197 kts | 174° |
| 2026-05-05 00:29 | 27.97557 | -82.22427 | 2748 ft | 190 kts | 174° |
| 2026-05-05 00:29 | 27.96284 | -82.22222 | 2549 ft | 182 kts | 150° |
| 2026-05-05 00:30 | 27.95487 | -82.21220 | 2300 ft | 172 kts | 103° |
| 2026-05-05 00:30 | 27.95698 | -82.19938 | 2061 ft | 175 kts | 58° |
| 2026-05-05 00:30 | 27.96458 | -82.18861 | 1963 ft | 171 kts | 63° |
| 2026-05-05 00:30 | 27.96914 | -82.17625 | 1973 ft | 172 kts | 74° |
| 2026-05-05 00:31 | 27.97330 | -82.16357 | 1969 ft | 172 kts | 70° |
| 2026-05-05 00:31 | 27.97822 | -82.15118 | 1974 ft | 170 kts | 68° |
| 2026-05-05 00:31 | 27.98309 | -82.13931 | 1950 ft | 161 kts | 70° |
| 2026-05-05 00:31 | 27.98746 | -82.12767 | 1788 ft | 162 kts | 71° |
| 2026-05-05 00:32 | 27.98984 | -82.11568 | 1593 ft | 153 kts | 91° |
| 2026-05-05 00:32 | 27.98887 | -82.10417 | 1433 ft | 142 kts | 95° |
| 2026-05-05 00:32 | 27.98873 | -82.09318 | 1234 ft | 135 kts | 89° |
| 2026-05-05 00:32 | 27.98905 | -82.08264 | 1054 ft | 135 kts | 90° |
| 2026-05-05 00:33 | 27.98899 | -82.07203 | 876 ft | 136 kts | 91° |
| 2026-05-05 00:33 | 27.98901 | -82.06124 | 703 ft | 138 kts | 90° |
| 2026-05-05 00:33 | 27.98922 | -82.05024 | 496 ft | 140 kts | 90° |
| 2026-05-05 00:33 | 27.98929 | -82.03935 | 281 ft | 141 kts | 91° |
| 2026-05-05 00:34 | 27.98925 | -82.02833 | 131 ft | 135 kts | 90° |
| 2026-05-05 00:34 | 27.98928 | -82.02007 | 133 ft | 66 kts | 90° |
| 2026-05-05 00:34 | 27.98931 | -82.01636 | 136 ft | 28 kts | 89° |
| 2026-05-05 00:34 | 27.98961 | -82.01521 | 136 ft | 11 kts | 43° |
| 2026-05-05 00:35 | 27.99007 | -82.01472 | 136 ft | 7 kts | 44° |
| 2026-05-05 00:35 | 27.99038 | -82.01437 | 137 ft | 4 kts | 44° |
| 2026-05-05 00:35 | 27.99053 | -82.01420 | 137 ft | 2 kts | 44° |
| 2026-05-05 00:35 | 27.99073 | -82.01398 | 138 ft | 6 kts | 45° |
| 2026-05-05 00:36 | 27.99108 | -82.01360 | 138 ft | 7 kts | 44° |
| 2026-05-05 00:36 | 27.99144 | -82.01318 | 139 ft | 7 kts | 45° |
| 2026-05-05 00:36 | 27.99170 | -82.01289 | 139 ft | 7 kts | 46° |